Arcturus, Minnesota
Current Conditions -  °F | °C
As of 6:35 AM on Monday 26 Jan 2015 (Local Time) from KGPZ Reporting Station
Overcast Overcast  
Wind Chill: 17°   Ceiling: 600
Heat Index: 25°   Visibility: 5mi
Dew Point: 21°   Wind: 7mph
Humidity: 86%   Direction: 180°S
Pressure: 29.59"   Gusts: NA
Location:  47.3121°N, 93.3823°W
Report Text: KGPZ 261235Z AUTO 18006KT 5SM OVC006 M04/M06 A2959 RMK AO1
Loading
Personal Weather Stations






























Interactive Weather Map New forecast layout! Learn more

10-Day Weather Forecast

Advertisements
Track Severe Weather on mobile